createdAt,value
2022-09-25T00:02:41.327Z,566.22222
2022-09-25T00:07:43.355Z,566.22222
2022-09-25T00:12:45.253Z,572.57143
2022-09-25T00:17:46.978Z,560
2022-09-25T00:22:48.719Z,553.90099
2022-09-25T00:27:50.456Z,553.90099
2022-09-25T00:32:52.220Z,553.90099
2022-09-25T00:37:54.200Z,536.30769
2022-09-25T00:42:55.757Z,536.30769
2022-09-25T00:47:57.217Z,566.22222
2022-09-25T00:52:58.791Z,560
2022-09-25T00:58:00.497Z,572.57143
2022-09-25T01:03:01.994Z,585.66667
2022-09-25T01:08:03.735Z,585.66667
2022-09-25T01:13:05.162Z,592.42105
2022-09-25T01:18:06.928Z,579.05155
2022-09-25T01:23:08.494Z,566.22222
2022-09-25T01:28:10.139Z,572.57143
2022-09-25T01:33:11.874Z,579.05155
2022-09-25T01:38:13.833Z,606.36559
2022-09-25T01:43:15.590Z,613.56522
2022-09-25T01:48:17.330Z,592.42105
2022-09-25T01:53:19.199Z,613.56522
2022-09-25T01:58:20.851Z,636.13483
2022-09-25T02:03:22.633Z,644
2022-09-25T02:08:24.494Z,620.92308
2022-09-25T02:13:26.203Z,636.13483
2022-09-25T02:18:27.957Z,628.44444
2022-09-25T02:23:29.769Z,660.27907
2022-09-25T02:28:31.218Z,652.04598
2022-09-25T02:33:32.660Z,652.04598
2022-09-25T02:38:34.294Z,644
2022-09-25T02:43:35.749Z,585.66667
2022-09-25T02:48:37.495Z,628.44444
2022-09-25T02:53:39.308Z,613.56522
2022-09-25T02:58:41.032Z,620.92308
2022-09-25T03:03:42.776Z,628.44444
2022-09-25T03:08:44.795Z,636.13483
2022-09-25T03:13:46.531Z,613.56522
2022-09-25T03:18:48.284Z,636.13483
2022-09-25T03:23:50.051Z,636.13483
2022-09-25T03:28:51.768Z,636.13483
2022-09-25T03:33:53.528Z,652.04598
2022-09-25T03:38:56.293Z,636.13483
2022-09-25T03:43:58.042Z,606.36559
2022-09-25T03:48:59.758Z,613.56522
2022-09-25T03:54:01.230Z,613.56522
2022-09-25T03:59:03.015Z,628.44444
2022-09-25T04:04:04.739Z,599.31915
2022-09-25T04:09:06.745Z,606.36559
2022-09-25T04:14:08.505Z,620.92308
2022-09-25T04:19:10.250Z,585.66667
2022-09-25T04:24:12.419Z,599.31915
2022-09-25T04:29:14.251Z,606.36559
2022-09-25T04:34:16.024Z,566.22222
2022-09-25T04:39:17.936Z,553.90099
2022-09-25T04:44:19.728Z,547.92157
2022-09-25T04:49:21.436Z,579.05155
2022-09-25T04:54:23.192Z,599.31915
2022-09-25T04:59:24.832Z,585.66667
2022-09-25T05:04:26.478Z,566.22222
2022-09-25T05:09:28.431Z,636.13483
2022-09-25T05:14:30.154Z,585.66667
2022-09-25T05:19:31.701Z,613.56522
2022-09-25T05:24:33.321Z,606.36559
2022-09-25T05:29:34.956Z,606.36559
2022-09-25T05:34:36.565Z,606.36559
2022-09-25T05:39:38.393Z,628.44444
2022-09-25T05:44:40.057Z,628.44444
2022-09-25T05:49:41.592Z,628.44444
2022-09-25T05:54:43.172Z,636.13483
2022-09-25T05:59:44.812Z,636.13483
2022-09-25T06:04:46.570Z,644
2022-09-25T06:09:48.461Z,644
2022-09-25T06:14:52.074Z,660.27907
2022-09-25T06:19:53.772Z,668.70588
2022-09-25T06:24:55.529Z,652.04598
2022-09-25T06:29:57.167Z,714
2022-09-25T06:34:58.816Z,668.70588
2022-09-25T06:40:00.668Z,677.33333
2022-09-25T06:45:02.276Z,686.16867
2022-09-25T06:50:04.044Z,686.16867
2022-09-25T06:55:06.141Z,668.70588
2022-09-25T07:00:07.882Z,695.21951
2022-09-25T07:05:09.687Z,652.04598
2022-09-25T07:10:11.661Z,733.74359
2022-09-25T07:15:13.399Z,754.52632
2022-09-25T07:20:15.135Z,686.16867
2022-09-25T07:25:16.896Z,754.52632
2022-09-25T07:30:18.628Z,787.83562
2022-09-25T07:35:20.358Z,723.74684
2022-09-25T07:40:22.406Z,723.74684
2022-09-25T07:45:24.203Z,620.92308
2022-09-25T07:50:25.978Z,714
2022-09-25T07:55:27.727Z,714
2022-09-25T08:00:29.648Z,695.21951
2022-09-25T08:05:31.441Z,733.74359
2022-09-25T08:10:33.320Z,723.74684
2022-09-25T08:15:34.865Z,754.52632
2022-09-25T08:20:36.457Z,754.52632
2022-09-25T08:25:37.887Z,754.52632
2022-09-25T08:30:39.530Z,799.55556
2022-09-25T08:35:41.053Z,799.55556
2022-09-25T08:40:46.512Z,836.75362
2022-09-25T08:45:48.352Z,811.60563
2022-09-25T08:50:49.969Z,799.55556
2022-09-25T08:55:51.906Z,836.75362
2022-09-25T09:00:53.334Z,877.33333
2022-09-25T09:05:54.959Z,824
2022-09-25T09:10:57.588Z,776.43243
2022-09-25T09:15:59.361Z,824
2022-09-25T09:21:00.970Z,877.33333
2022-09-25T09:26:02.572Z,849.88235
2022-09-25T09:31:04.243Z,849.88235
2022-09-25T09:36:05.809Z,906.5
2022-09-25T09:41:08.268Z,836.75362
2022-09-25T09:46:09.903Z,849.88235
2022-09-25T09:51:11.486Z,863.40299
2022-09-25T09:56:13.049Z,787.83562
2022-09-25T10:01:36.642Z,836.75362
2022-09-25T10:06:42.134Z,849.88235
2022-09-25T10:11:44.243Z,811.60563
2022-09-25T10:16:45.638Z,877.33333
2022-09-25T10:21:47.102Z,849.88235
2022-09-25T10:26:48.555Z,877.33333
2022-09-25T10:31:50.304Z,891.69231
2022-09-25T10:36:52.043Z,849.88235
2022-09-25T10:41:54.040Z,849.88235
2022-09-25T10:46:55.786Z,877.33333
2022-09-25T10:51:57.533Z,877.33333
2022-09-25T10:56:59.356Z,787.83562
2022-09-25T11:02:01.219Z,811.60563
2022-09-25T11:07:03.015Z,877.33333
2022-09-25T11:12:05.052Z,776.43243
2022-09-25T11:17:06.983Z,921.77778
2022-09-25T11:22:08.812Z,863.40299
2022-09-25T11:27:10.678Z,906.5
2022-09-25T11:32:12.439Z,921.77778
2022-09-25T11:37:14.173Z,937.54839
2022-09-25T11:42:16.376Z,921.77778
2022-09-25T11:47:18.098Z,937.54839
2022-09-25T11:52:19.832Z,891.69231
2022-09-25T11:57:21.590Z,877.33333
2022-09-25T12:02:23.151Z,906.5
2022-09-25T12:07:24.975Z,921.77778
2022-09-25T12:12:26.945Z,921.77778
2022-09-25T12:17:28.648Z,824
2022-09-25T12:22:30.372Z,937.54839
2022-09-25T12:27:32.145Z,1024.70175
2022-09-25T12:32:33.722Z,1006.06897
2022-09-25T12:37:35.454Z,877.33333
2022-09-25T12:42:37.087Z,906.5
2022-09-25T12:47:38.541Z,906.5
2022-09-25T12:52:40.002Z,988.0678
2022-09-25T12:57:41.699Z,953.83607
2022-09-25T13:02:43.368Z,921.77778
2022-09-25T13:07:44.877Z,906.5
2022-09-25T13:12:46.853Z,937.54839
2022-09-25T13:17:48.376Z,891.69231
2022-09-25T13:22:50.304Z,921.77778
2022-09-25T13:27:51.932Z,891.69231
2022-09-25T13:32:53.383Z,863.40299
2022-09-25T13:37:54.802Z,953.83607
2022-09-25T13:42:56.911Z,921.77778
2022-09-25T13:48:01.737Z,891.69231
2022-09-25T13:53:04.598Z,906.5
2022-09-25T13:58:06.245Z,937.54839
2022-09-25T14:03:07.864Z,891.69231
2022-09-25T14:08:09.513Z,953.83607
2022-09-25T14:13:11.499Z,937.54839
2022-09-25T14:18:13.279Z,906.5
2022-09-25T14:23:15.050Z,937.54839
2022-09-25T14:28:16.740Z,906.5
2022-09-25T14:33:18.276Z,970.66667
2022-09-25T14:38:20.025Z,504
2022-09-25T14:43:21.925Z,324.24691
2022-09-25T14:48:23.665Z,374.76923
2022-09-25T14:53:25.484Z,400.2963
2022-09-25T14:58:27.201Z,211.82609
2022-09-25T15:03:28.875Z,414.22901
2022-09-25T15:08:30.484Z,572.57143
2022-09-25T15:13:32.616Z,547.92157
2022-09-25T15:18:33.899Z,414.22901
2022-09-25T15:23:35.479Z,363.04762
2022-09-25T15:28:37.225Z,466.0339
2022-09-25T15:33:38.796Z,585.66667
2022-09-25T15:38:40.416Z,417.84615
2022-09-25T15:43:42.086Z,448.91803
2022-09-25T15:48:43.604Z,489.13274
2022-09-25T15:53:45.141Z,429.03937
2022-09-25T15:58:47.028Z,208.37768
2022-09-25T16:03:48.759Z,407.15789
2022-09-25T16:08:50.487Z,425.25
2022-09-25T16:13:52.292Z,457.33333
2022-09-25T16:18:54.387Z,421.51938
2022-09-25T16:23:56.556Z,484.35088
2022-09-25T16:28:58.081Z,407.15789
2022-09-25T16:33:59.504Z,475.03448
2022-09-25T16:39:01.164Z,396.94118
2022-09-25T16:44:02.946Z,585.66667
2022-09-25T16:49:04.488Z,457.33333
2022-09-25T16:54:06.148Z,432.88889
2022-09-25T16:59:08.044Z,489.13274
2022-09-25T17:04:09.584Z,479.65217
2022-09-25T17:09:11.029Z,509.13761
2022-09-25T17:14:12.752Z,636.13483
2022-09-25T17:19:14.440Z,536.30769
2022-09-25T17:24:16.104Z,677.33333
2022-09-25T17:29:17.607Z,384
2022-09-25T17:34:19.076Z,613.56522
2022-09-25T17:39:20.855Z,636.13483
2022-09-25T17:44:22.624Z,644
2022-09-25T17:49:24.251Z,636.13483
2022-09-25T17:54:25.915Z,652.04598
2022-09-25T17:59:27.537Z,644
2022-09-25T18:04:29.155Z,620.92308
2022-09-25T18:09:30.722Z,613.56522
2022-09-25T18:14:32.538Z,606.36559
2022-09-25T18:19:34.085Z,572.57143
2022-09-25T18:24:35.578Z,572.57143
2022-09-25T18:29:37.093Z,572.57143
2022-09-25T18:34:38.538Z,566.22222
2022-09-25T18:39:39.990Z,585.66667
2022-09-25T18:44:42.995Z,572.57143
2022-09-25T18:49:45.116Z,560
2022-09-25T18:54:46.964Z,572.57143
2022-09-25T18:59:48.729Z,585.66667
2022-09-25T19:04:50.157Z,585.66667
2022-09-25T19:09:52.009Z,572.57143
2022-09-25T19:14:54.065Z,572.57143
2022-09-25T19:19:55.627Z,579.05155
2022-09-25T19:24:57.356Z,585.66667
2022-09-25T19:29:58.898Z,572.57143
2022-09-25T19:35:00.397Z,572.57143
2022-09-25T19:40:01.841Z,560
2022-09-25T19:45:03.907Z,606.36559
2022-09-25T19:50:05.668Z,620.92308
2022-09-25T19:55:07.413Z,613.56522
2022-09-25T20:00:09.093Z,613.56522
2022-09-25T20:05:10.767Z,620.92308
2022-09-25T20:10:12.417Z,613.56522
2022-09-25T20:15:14.278Z,620.92308
2022-09-25T20:20:15.879Z,613.56522
2022-09-25T20:25:17.496Z,644
2022-09-25T20:30:19.137Z,636.13483
2022-09-25T20:35:20.789Z,592.42105
2022-09-25T20:40:22.310Z,592.42105
2022-09-25T20:45:24.326Z,592.42105
2022-09-25T20:50:26.131Z,592.42105
2022-09-25T20:55:27.889Z,585.66667
2022-09-25T21:00:30.202Z,592.42105
2022-09-25T21:05:31.961Z,613.56522
2022-09-25T21:10:33.684Z,620.92308
2022-09-25T21:15:35.325Z,613.56522
2022-09-25T21:20:36.787Z,628.44444
2022-09-25T21:25:38.287Z,599.31915
2022-09-25T21:30:39.787Z,606.36559
2022-09-25T21:35:41.486Z,599.31915
2022-09-25T21:40:42.976Z,572.57143
2022-09-25T21:45:44.718Z,547.92157
2022-09-25T21:50:46.509Z,530.66667
2022-09-25T21:55:48.231Z,536.30769
2022-09-25T22:00:50.109Z,536.30769
2022-09-25T22:05:51.873Z,509.13761
2022-09-25T22:10:53.745Z,498.95495
2022-09-25T22:15:55.698Z,504
2022-09-25T22:20:57.488Z,514.37037
2022-09-25T22:25:58.911Z,509.13761
2022-09-25T22:31:00.794Z,519.70093
2022-09-25T22:36:02.585Z,525.13208
2022-09-25T22:41:04.340Z,525.13208
2022-09-25T22:46:06.392Z,514.37037
2022-09-25T22:51:08.260Z,514.37037
2022-09-25T22:56:10.095Z,514.37037
2022-09-25T23:01:12.083Z,519.70093
2022-09-25T23:06:13.859Z,514.37037
2022-09-25T23:11:15.937Z,525.13208
2022-09-25T23:16:17.901Z,536.30769
2022-09-25T23:21:19.735Z,560
2022-09-25T23:26:21.462Z,560
2022-09-25T23:31:23.388Z,560
2022-09-25T23:36:25.135Z,560
2022-09-25T23:41:26.873Z,566.22222
2022-09-25T23:46:28.988Z,572.57143
2022-09-25T23:51:30.832Z,579.05155
2022-09-25T23:56:32.568Z,599.31915
